Time;durP1;ratioP1;P1;durP2;ratioP2;P2;SDS_P1;SDS_P2;PMS_P1;PMS_P2;Temp;Humidity;BMP_temperature;BMP_pressure;BME280_temperature;BME280_humidity;BME280_pressure;Samples;Min_cycle;Max_cycle;Signal;HPM_P1;HPM_P2
2022/01/11 00:00:24;;;;;;;21.58;11.90;;;103.00;1792.00;;;;;;5053333;28;20049;-60
2022/01/11 00:02:52;;;;;;;22.27;12.30;;;103.10;1817.60;;;;;;5053340;28;20029;-60
2022/01/11 00:05:23;;;;;;;23.33;13.52;;;103.10;1766.40;;;;;;5053325;28;20017;-60
2022/01/11 00:07:51;;;;;;;22.05;11.88;;;103.00;1792.00;;;;;;5053031;28;20033;-60
2022/01/11 00:10:26;;;;;;;19.88;11.60;;;103.00;1792.00;;;;;;5052012;28;20123;-60
2022/01/11 00:12:52;;;;;;;20.33;11.90;;;103.00;1843.20;;;;;;5053080;28;20431;-60
2022/01/11 00:15:18;;;;;;;19.58;11.25;;;103.00;1817.60;;;;;;5053268;28;20021;-60
2022/01/11 00:17:44;;;;;;;19.83;12.25;;;103.00;1792.00;;;;;;5053539;28;20533;-59
2022/01/11 00:20:13;;;;;;;21.10;11.75;;;103.00;1817.60;;;;;;5053255;28;20498;-60
2022/01/11 00:24:26;;;;;;;23.50;13.30;;;103.00;1843.20;;;;;;5053012;28;20037;-60
2022/01/11 00:25:27;;;;;;;19.70;11.50;;;103.00;1792.00;;;;;;5053113;28;20083;-61
2022/01/11 00:27:52;;;;;;;19.17;10.88;;;103.00;1792.00;;;;;;5054520;28;20094;-60
2022/01/11 00:30:19;;;;;;;20.40;11.23;;;103.10;1817.60;;;;;;5056700;28;20466;-61
2022/01/11 00:32:50;;;;;;;18.88;10.32;;;103.10;1817.60;;;;;;5056777;28;20025;-60
2022/01/11 00:35:17;;;;;;;17.08;10.35;;;103.10;1792.00;;;;;;5056943;28;20017;-61
2022/01/11 00:37:46;;;;;;;17.73;10.43;;;103.10;1792.00;;;;;;5056812;28;20126;-60
2022/01/11 00:40:12;;;;;;;20.35;10.65;;;103.00;1792.00;;;;;;5056509;28;20029;-61
2022/01/11 00:42:38;;;;;;;17.75;10.27;;;103.10;1817.60;;;;;;5055896;28;20037;-61
2022/01/11 00:45:10;;;;;;;19.95;11.40;;;103.10;1792.00;;;;;;5056785;28;20029;-61
2022/01/11 00:47:36;;;;;;;21.75;11.82;;;103.10;1792.00;;;;;;5056614;28;20021;-60
2022/01/11 00:50:04;;;;;;;19.95;11.55;;;103.10;1766.40;;;;;;5056584;28;20025;-61
2022/01/11 00:52:30;;;;;;;18.55;10.88;;;103.00;1766.40;;;;;;5055353;28;20060;-61
2022/01/11 00:54:56;;;;;;;21.08;11.82;;;103.10;1740.80;;;;;;5056259;28;20114;-61
2022/01/11 00:57:22;;;;;;;21.48;11.27;;;103.00;1740.80;;;;;;5056112;28;20017;-61
2022/01/11 00:59:48;;;;;;;18.02;10.82;;;103.00;1740.80;;;;;;5056091;28;20049;-61
2022/01/11 01:02:14;;;;;;;19.48;11.07;;;103.00;1766.40;;;;;;5056263;28;20043;-61
2022/01/11 01:04:40;;;;;;;16.65;10.23;;;103.00;1817.60;;;;;;5056447;28;20025;-60
2022/01/11 01:07:05;;;;;;;19.48;10.45;;;103.10;1868.80;;;;;;5056298;28;20074;-61
2022/01/11 01:09:41;;;;;;;18.08;10.00;;;103.10;1843.20;;;;;;5055645;28;20543;-61
2022/01/11 01:12:08;;;;;;;18.48;10.50;;;103.10;1817.60;;;;;;5055960;28;20040;-60
2022/01/11 01:14:34;;;;;;;19.75;9.85;;;103.10;1817.60;;;;;;5055870;28;20036;-60
2022/01/11 01:16:59;;;;;;;18.70;10.80;;;103.10;1817.60;;;;;;5054158;28;20041;-60
2022/01/11 01:19:27;;;;;;;15.38;9.10;;;103.20;1792.00;;;;;;5056060;28;20032;-60
2022/01/11 01:21:54;;;;;;;17.80;10.23;;;103.20;1766.40;;;;;;5055771;28;20426;-60
2022/01/11 01:24:21;;;;;;;18.27;10.60;;;103.20;1792.00;;;;;;5055800;28;20082;-60
2022/01/11 01:26:47;;;;;;;19.60;10.80;;;103.20;1792.00;;;;;;5055805;28;20025;-61
2022/01/11 01:29:13;;;;;;;17.85;11.18;;;103.20;1766.40;;;;;;5055533;28;20486;-60
2022/01/11 01:31:39;;;;;;;20.00;11.75;;;103.20;1792.00;;;;;;5055878;28;20048;-61
2022/01/11 01:34:06;;;;;;;19.67;11.25;;;103.20;1766.40;;;;;;5055783;28;20096;-61
2022/01/11 01:36:32;;;;;;;17.83;9.48;;;103.20;1766.40;;;;;;5055631;28;20017;-61
2022/01/11 01:38:58;;;;;;;19.40;10.63;;;103.20;1766.40;;;;;;5054669;28;20029;-61
2022/01/11 01:41:24;;;;;;;14.88;9.23;;;103.20;1766.40;;;;;;5054587;28;20033;-61
2022/01/11 01:43:55;;;;;;;18.20;10.85;;;103.20;1740.80;;;;;;5055507;28;20037;-61
2022/01/11 01:46:23;;;;;;;17.58;10.40;;;103.20;1766.40;;;;;;5055273;28;20485;-61
2022/01/11 01:48:50;;;;;;;17.42;10.32;;;103.20;1740.80;;;;;;5055499;28;20103;-61
2022/01/11 01:51:17;;;;;;;17.35;9.75;;;103.10;1740.80;;;;;;5055484;28;20139;-61
2022/01/11 01:53:46;;;;;;;17.52;9.73;;;103.10;1766.40;;;;;;5055205;28;20463;-62
2022/01/11 01:56:12;;;;;;;18.08;9.82;;;103.10;1740.80;;;;;;5055620;28;20025;-60
2022/01/11 01:58:38;;;;;;;18.15;10.65;;;103.10;1715.20;;;;;;5054902;28;20037;-62
2022/01/11 02:01:05;;;;;;;17.38;10.05;;;103.10;1740.80;;;;;;5055475;28;20027;-61
2022/01/11 02:03:39;;;;;;;20.48;10.18;;;103.10;1740.80;;;;;;5055070;28;20033;-60
2022/01/11 02:06:09;;;;;;;15.95;9.45;;;103.00;1715.20;;;;;;5055200;28;20074;-61
2022/01/11 02:08:36;;;;;;;16.73;10.07;;;103.00;1740.80;;;;;;5054814;28;20044;-61
2022/01/11 02:11:03;;;;;;;19.90;10.95;;;103.10;1740.80;;;;;;5055059;28;20028;-61
2022/01/11 02:13:29;;;;;;;20.52;12.05;;;103.10;1689.60;;;;;;5054737;28;20487;-60
2022/01/11 02:15:56;;;;;;;19.02;11.43;;;103.00;1715.20;;;;;;5054754;28;20053;-60
2022/01/11 02:18:25;;;;;;;17.98;10.50;;;103.00;1766.40;;;;;;5054789;28;20036;-61
2022/01/11 02:20:55;;;;;;;18.67;9.88;;;103.00;1715.20;;;;;;5054790;28;20020;-61
2022/01/11 02:23:21;;;;;;;17.80;10.55;;;102.90;1689.60;;;;;;5054680;28;20466;-61
2022/01/11 02:25:47;;;;;;;16.30;10.00;;;102.90;1740.80;;;;;;5054602;28;20021;-60
2022/01/11 02:28:17;;;;;;;19.08;9.90;;;102.90;1766.40;;;;;;5054617;28;20107;-60
2022/01/11 02:30:44;;;;;;;17.83;10.52;;;102.80;1715.20;;;;;;5054564;28;20056;-60
2022/01/11 02:33:25;;;;;;;18.95;11.25;;;102.80;1766.40;;;;;;5053247;28;20080;-60
2022/01/11 02:35:51;;;;;;;17.95;10.73;;;102.90;1766.40;;;;;;5054600;28;20419;-60
2022/01/11 02:38:18;;;;;;;16.05;10.05;;;102.80;1740.80;;;;;;5054400;28;20029;-60
2022/01/11 02:40:44;;;;;;;17.58;10.10;;;102.80;1766.40;;;;;;5052989;28;20087;-60
2022/01/11 02:43:10;;;;;;;17.60;10.25;;;102.80;1792.00;;;;;;5053917;28;20037;-60
2022/01/11 02:45:36;;;;;;;16.92;10.35;;;102.80;1766.40;;;;;;5054353;28;20028;-60
2022/01/11 02:48:02;;;;;;;16.33;9.85;;;102.70;1740.80;;;;;;5053328;28;20463;-60
2022/01/11 02:50:27;;;;;;;16.70;9.57;;;102.70;1766.40;;;;;;5053921;28;20025;-60
2022/01/11 02:52:53;;;;;;;15.68;9.65;;;102.80;1792.00;;;;;;5053753;28;20040;-60
2022/01/11 02:55:19;;;;;;;20.35;9.68;;;102.80;1766.40;;;;;;5054123;28;20036;-60
2022/01/11 02:57:45;;;;;;;17.38;10.10;;;102.70;1740.80;;;;;;5054150;28;20111;-60
2022/01/11 03:00:17;;;;;;;19.65;10.90;;;102.80;1792.00;;;;;;5053874;28;20048;-60
2022/01/11 03:02:43;;;;;;;16.42;9.95;;;102.80;1766.40;;;;;;5053947;28;20058;-60
2022/01/11 03:05:10;;;;;;;18.27;10.40;;;102.80;1766.40;;;;;;5054014;28;20032;-61
2022/01/11 03:07:37;;;;;;;18.02;10.95;;;102.80;1766.40;;;;;;5053823;28;20029;-61
2022/01/11 03:10:15;;;;;;;17.20;10.10;;;102.90;1766.40;;;;;;5053707;28;20036;-61
2022/01/11 03:12:43;;;;;;;15.60;9.75;;;102.90;1766.40;;;;;;5053864;28;20460;-61
2022/01/11 03:15:11;;;;;;;17.58;10.10;;;102.90;1740.80;;;;;;5052233;28;20048;-60
2022/01/11 03:17:38;;;;;;;17.35;9.60;;;102.90;1740.80;;;;;;5053917;28;20459;-61
2022/01/11 03:20:05;;;;;;;15.23;10.27;;;102.90;1766.40;;;;;;5053783;28;20047;-61
2022/01/11 03:22:31;;;;;;;17.38;10.65;;;102.90;1740.80;;;;;;5053472;28;20124;-60
2022/01/11 03:24:57;;;;;;;17.17;9.77;;;102.80;1740.80;;;;;;5053569;28;20060;-62
2022/01/11 03:27:22;;;;;;;19.08;10.07;;;102.80;1740.80;;;;;;5053604;28;20059;-60
2022/01/11 03:29:48;;;;;;;15.88;9.65;;;102.90;1766.40;;;;;;5053777;28;20040;-60
2022/01/11 03:32:18;;;;;;;18.10;10.27;;;102.90;1740.80;;;;;;5053611;28;20483;-60
2022/01/11 03:34:45;;;;;;;17.27;10.30;;;102.90;1715.20;;;;;;5053622;28;20029;-60
2022/01/11 03:37:14;;;;;;;17.55;10.57;;;102.80;1715.20;;;;;;5053411;28;20528;-60
2022/01/11 03:39:40;;;;;;;19.60;10.55;;;102.80;1766.40;;;;;;5053649;28;20040;-61
2022/01/11 03:42:06;;;;;;;18.42;9.85;;;102.90;1766.40;;;;;;5053539;28;20368;-61
2022/01/11 03:44:32;;;;;;;21.00;10.90;;;102.80;1740.80;;;;;;5053670;28;20029;-61
2022/01/11 03:46:59;;;;;;;19.95;10.70;;;102.80;1740.80;;;;;;5053335;28;20462;-61
2022/01/11 03:49:25;;;;;;;16.10;10.02;;;102.80;1766.40;;;;;;5053573;28;20036;-61
2022/01/11 03:51:51;;;;;;;15.70;10.00;;;102.80;1766.40;;;;;;5053345;28;20029;-62
2022/01/11 03:54:24;;;;;;;15.35;8.70;;;102.80;1766.40;;;;;;5053675;28;20040;-62
2022/01/11 03:56:50;;;;;;;17.25;9.80;;;102.80;1715.20;;;;;;5052078;28;20033;-62
2022/01/11 03:59:15;;;;;;;17.27;8.57;;;102.80;1715.20;;;;;;5052901;28;20087;-62
2022/01/11 04:01:41;;;;;;;16.20;9.45;;;102.70;1715.20;;;;;;5053296;28;20498;-60
2022/01/11 04:04:09;;;;;;;21.92;9.55;;;102.80;1715.20;;;;;;5057187;28;20047;-64
2022/01/11 04:06:35;;;;;;;18.92;9.25;;;102.80;1766.40;;;;;;5057449;28;20077;-62
2022/01/11 04:09:02;;;;;;;18.65;9.50;;;102.70;1740.80;;;;;;5057039;28;20025;-61
2022/01/11 04:11:28;;;;;;;16.67;9.90;;;102.80;1766.40;;;;;;5055870;28;20024;-60
2022/01/11 04:13:54;;;;;;;24.45;10.45;;;102.80;1766.40;;;;;;5057231;28;20051;-68
2022/01/11 04:16:19;;;;;;;23.05;10.13;;;103.00;1843.20;;;;;;5057096;28;20028;-68
2022/01/11 04:18:45;;;;;;;27.13;10.63;;;103.00;1843.20;;;;;;5056838;28;20056;-61
2022/01/11 04:21:11;;;;;;;23.52;9.98;;;103.10;1843.20;;;;;;5055650;28;20060;-60
2022/01/11 04:23:38;;;;;;;16.67;9.73;;;103.00;1792.00;;;;;;5057101;28;20045;-60
2022/01/11 04:26:04;;;;;;;14.65;8.90;;;103.00;1766.40;;;;;;5056857;28;20021;-60
2022/01/11 04:28:30;;;;;;;16.98;9.27;;;103.00;1792.00;;;;;;5056893;28;20029;-60
2022/01/11 04:31:00;;;;;;;16.88;9.52;;;103.00;1766.40;;;;;;5056989;28;20036;-60
2022/01/11 04:33:31;;;;;;;15.68;9.20;;;103.00;1766.40;;;;;;5056807;28;20036;-60
2022/01/11 04:35:59;;;;;;;17.35;9.68;;;103.00;1766.40;;;;;;5056838;28;20052;-60
2022/01/11 04:38:29;;;;;;;19.83;10.27;;;103.00;1766.40;;;;;;5055394;28;20021;-60
2022/01/11 04:40:55;;;;;;;15.70;8.93;;;103.00;1766.40;;;;;;5056288;28;20124;-60
2022/01/11 04:43:21;;;;;;;18.90;9.40;;;103.00;1740.80;;;;;;5056567;28;20100;-61
2022/01/11 04:45:47;;;;;;;18.98;10.35;;;103.00;1766.40;;;;;;5056806;28;20047;-60
2022/01/11 04:48:14;;;;;;;18.23;9.32;;;103.00;1740.80;;;;;;5056634;28;20501;-60
2022/01/11 04:50:41;;;;;;;21.95;10.70;;;103.00;1766.40;;;;;;5056646;28;20056;-60
2022/01/11 04:53:07;;;;;;;18.23;9.77;;;103.00;1766.40;;;;;;5056536;28;20033;-60
2022/01/11 04:55:33;;;;;;;16.92;8.90;;;103.00;1766.40;;;;;;5056325;28;20029;-60
2022/01/11 04:57:59;;;;;;;17.45;9.80;;;103.00;1766.40;;;;;;5056387;28;20385;-60
2022/01/11 05:00:26;;;;;;;16.02;8.35;;;103.00;1766.40;;;;;;5056312;28;20375;-60
2022/01/11 05:02:52;;;;;;;14.73;8.63;;;103.00;1766.40;;;;;;5056130;28;20036;-60
2022/01/11 05:05:17;;;;;;;15.15;8.30;;;103.00;1740.80;;;;;;5056092;28;20025;-60
2022/01/11 05:07:45;;;;;;;14.07;8.48;;;103.00;1766.40;;;;;;5056167;28;20527;-60
2022/01/11 05:10:12;;;;;;;13.63;7.70;;;103.00;1766.40;;;;;;5056211;28;20438;-60
2022/01/11 05:12:38;;;;;;;15.10;7.53;;;103.00;1740.80;;;;;;5056011;28;20040;-60
2022/01/11 05:15:09;;;;;;;12.73;7.15;;;103.00;1740.80;;;;;;5055007;28;20463;-60
2022/01/11 05:17:36;;;;;;;14.18;8.02;;;103.00;1740.80;;;;;;5056041;28;20021;-60
2022/01/11 05:20:04;;;;;;;13.00;7.68;;;103.00;1740.80;;;;;;5056028;28;20025;-61
2022/01/11 05:22:30;;;;;;;13.63;7.88;;;103.00;1766.40;;;;;;5055778;28;20033;-61
2022/01/11 05:24:56;;;;;;;13.68;7.97;;;102.90;1766.40;;;;;;5055920;28;20025;-61
2022/01/11 05:27:22;;;;;;;17.88;8.40;;;103.00;1766.40;;;;;;5055940;28;20510;-61
2022/01/11 05:29:47;;;;;;;15.38;8.15;;;103.00;1740.80;;;;;;5055509;28;20349;-61
2022/01/11 05:32:13;;;;;;;12.15;7.43;;;103.00;1740.80;;;;;;5056186;28;20045;-61
2022/01/11 05:34:39;;;;;;;12.27;7.72;;;103.10;1740.80;;;;;;5055829;28;20036;-61
2022/01/11 05:37:05;;;;;;;15.45;7.82;;;103.10;1740.80;;;;;;5055836;28;20047;-61
2022/01/11 05:39:30;;;;;;;11.45;6.88;;;103.10;1740.80;;;;;;5055398;28;20032;-61
2022/01/11 05:41:56;;;;;;;14.18;8.13;;;103.00;1740.80;;;;;;5055511;28;20100;-61
2022/01/11 05:44:22;;;;;;;13.07;7.78;;;103.10;1740.80;;;;;;5055452;28;20040;-61
2022/01/11 05:46:48;;;;;;;13.75;8.23;;;103.10;1740.80;;;;;;5055392;28;20056;-61
2022/01/11 05:49:14;;;;;;;14.73;8.52;;;103.00;1740.80;;;;;;5054866;28;20045;-60
2022/01/11 05:51:40;;;;;;;16.98;9.40;;;103.10;1766.40;;;;;;5053307;28;20056;-61
2022/01/11 05:54:05;;;;;;;18.33;9.77;;;103.00;1740.80;;;;;;5055224;28;20021;-64
2022/01/11 05:56:31;;;;;;;19.45;10.07;;;103.00;1766.40;;;;;;5054950;28;20017;-61
2022/01/11 05:58:57;;;;;;;19.17;10.15;;;103.00;1740.80;;;;;;5054923;28;20053;-60
2022/01/11 06:01:25;;;;;;;17.77;10.15;;;103.10;1740.80;;;;;;5055615;28;20028;-60
2022/01/11 06:03:51;;;;;;;15.55;9.40;;;103.10;1740.80;;;;;;5054796;28;20028;-60
2022/01/11 06:06:17;;;;;;;18.38;9.90;;;103.00;1715.20;;;;;;5055251;28;20025;-60
2022/01/11 06:08:43;;;;;;;18.63;10.07;;;103.00;1740.80;;;;;;5055187;28;20021;-60
2022/01/11 06:11:09;;;;;;;21.85;10.10;;;103.00;1715.20;;;;;;5055024;28;20119;-60
2022/01/11 06:13:35;;;;;;;20.67;11.20;;;103.00;1740.80;;;;;;5054856;28;20021;-61
2022/01/11 06:16:00;;;;;;;22.98;12.40;;;103.00;1740.80;;;;;;5053216;28;20079;-61
2022/01/11 06:18:26;;;;;;;20.08;10.32;;;103.00;1740.80;;;;;;5055039;28;20477;-60
2022/01/11 06:20:52;;;;;;;16.65;9.00;;;103.00;1766.40;;;;;;5054742;28;20421;-60
2022/01/11 06:23:17;;;;;;;17.05;9.93;;;103.00;1715.20;;;;;;5054512;28;20057;-60
2022/01/11 06:25:43;;;;;;;17.15;9.07;;;102.90;1740.80;;;;;;5054103;28;20021;-60
2022/01/11 06:28:09;;;;;;;16.95;9.40;;;102.90;1740.80;;;;;;5054731;28;20029;-60
2022/01/11 06:30:35;;;;;;;19.90;9.48;;;102.90;1766.40;;;;;;5054594;28;20021;-60
2022/01/11 06:33:01;;;;;;;16.85;8.75;;;102.90;1792.00;;;;;;5055191;28;20374;-60
2022/01/11 06:35:27;;;;;;;18.55;9.85;;;103.00;1715.20;;;;;;5054283;28;20104;-60
2022/01/11 06:37:53;;;;;;;16.33;9.48;;;103.00;1766.40;;;;;;5054315;28;20024;-60
2022/01/11 06:40:20;;;;;;;17.05;9.70;;;102.90;1766.40;;;;;;5054308;28;20129;-60
2022/01/11 06:42:47;;;;;;;19.45;10.15;;;102.90;1740.80;;;;;;5054536;28;20075;-60
2022/01/11 06:45:14;;;;;;;18.75;10.85;;;102.90;1792.00;;;;;;5053807;28;20360;-60
2022/01/11 06:47:41;;;;;;;18.95;10.63;;;103.00;1740.80;;;;;;5054511;28;20104;-60
2022/01/11 06:50:09;;;;;;;18.15;10.00;;;102.90;1792.00;;;;;;5054207;28;20021;-60
2022/01/11 06:52:35;;;;;;;26.60;13.13;;;103.00;1766.40;;;;;;5054039;28;20029;-60
2022/01/11 06:55:03;;;;;;;25.20;13.57;;;102.90;1766.40;;;;;;5054228;28;20397;-60
2022/01/11 06:57:28;;;;;;;27.55;14.95;;;102.90;1792.00;;;;;;5054177;28;20108;-60
2022/01/11 06:59:55;;;;;;;29.55;15.18;;;102.90;1740.80;;;;;;5053958;28;20580;-60
2022/01/11 07:02:20;;;;;;;34.08;16.50;;;103.00;1766.40;;;;;;5054021;28;20035;-60
2022/01/11 07:04:47;;;;;;;32.88;16.45;;;103.00;1766.40;;;;;;5054005;28;20056;-60
2022/01/11 07:07:13;;;;;;;34.40;17.92;;;103.00;1740.80;;;;;;5053854;28;20025;-60
2022/01/11 07:09:39;;;;;;;31.67;17.52;;;103.00;1766.40;;;;;;5054102;28;20087;-60
2022/01/11 07:12:05;;;;;;;29.55;16.23;;;103.00;1740.80;;;;;;5054160;28;20506;-60
2022/01/11 07:14:31;;;;;;;27.25;15.05;;;102.90;1766.40;;;;;;5053601;28;20112;-60
2022/01/11 07:16:57;;;;;;;33.28;16.80;;;102.90;1792.00;;;;;;5052515;28;20048;-60
2022/01/11 07:19:24;;;;;;;26.23;15.02;;;102.90;1740.80;;;;;;5052443;28;20033;-60
2022/01/11 07:21:50;;;;;;;38.88;20.88;;;102.90;1766.40;;;;;;5053357;28;20036;-60
2022/01/11 07:24:17;;;;;;;37.95;21.27;;;103.00;1740.80;;;;;;5053598;28;20463;-60
2022/01/11 07:26:43;;;;;;;34.30;18.00;;;102.90;1766.40;;;;;;5053538;28;20028;-60
2022/01/11 07:29:09;;;;;;;31.10;16.23;;;102.90;1792.00;;;;;;5053941;28;20382;-60
2022/01/11 07:31:37;;;;;;;32.50;17.90;;;102.90;1740.80;;;;;;5053811;28;20458;-60
2022/01/11 07:34:06;;;;;;;34.45;18.42;;;102.80;1792.00;;;;;;5053514;28;20028;-60
2022/01/11 07:36:33;;;;;;;32.05;18.15;;;102.80;1766.40;;;;;;5052951;28;20029;-60
2022/01/11 07:38:59;;;;;;;35.22;19.13;;;102.80;1766.40;;;;;;5053430;28;20033;-59
2022/01/11 07:41:25;;;;;;;37.78;18.30;;;102.80;1792.00;;;;;;5052947;28;20375;-60
2022/01/11 07:43:51;;;;;;;33.67;17.05;;;102.70;1766.40;;;;;;5053500;28;20425;-60
2022/01/11 07:46:17;;;;;;;27.92;15.75;;;102.70;1792.00;;;;;;5053556;28;20041;-60
2022/01/11 07:48:42;;;;;;;28.40;14.43;;;102.80;1792.00;;;;;;5053361;28;20064;-60
2022/01/11 07:51:09;;;;;;;24.75;13.85;;;102.80;1766.40;;;;;;5052293;28;20040;-61
2022/01/11 07:53:35;;;;;;;29.90;15.95;;;102.80;1792.00;;;;;;5052324;28;20025;-61
2022/01/11 07:56:01;;;;;;;30.80;16.17;;;102.90;1766.40;;;;;;5052772;28;20116;-62
2022/01/11 07:58:27;;;;;;;34.72;17.55;;;102.80;1766.40;;;;;;5053162;28;20079;-61
2022/01/11 08:00:53;;;;;;;39.50;19.48;;;102.90;1792.00;;;;;;5053474;28;20029;-60
2022/01/11 08:03:19;;;;;;;32.00;16.25;;;102.90;1792.00;;;;;;5053388;28;20041;-60
2022/01/11 08:05:44;;;;;;;29.52;15.70;;;102.90;1766.40;;;;;;5053344;28;20025;-60
2022/01/11 08:08:10;;;;;;;25.45;14.18;;;102.90;1792.00;;;;;;5053215;28;20077;-60
2022/01/11 08:10:36;;;;;;;27.65;13.63;;;102.90;1740.80;;;;;;5053090;28;20078;-59
2022/01/11 08:13:05;;;;;;;21.55;13.35;;;102.90;1792.00;;;;;;5052524;28;20040;-60
2022/01/11 08:15:33;;;;;;;23.70;13.63;;;102.90;1792.00;;;;;;5053228;28;20091;-60
2022/01/11 08:17:59;;;;;;;23.02;12.30;;;102.90;1766.40;;;;;;5052948;28;20021;-60
2022/01/11 08:20:24;;;;;;;31.45;13.80;;;102.90;1792.00;;;;;;5053135;28;20025;-60
2022/01/11 08:22:52;;;;;;;26.45;13.52;;;103.00;1971.20;;;;;;5052986;28;20032;-60
2022/01/11 08:25:18;;;;;;;39.33;14.20;;;103.00;1817.60;;;;;;5053131;28;20021;-60
2022/01/11 08:27:43;;;;;;;21.65;13.35;;;103.00;1817.60;;;;;;5053142;28;20383;-60
2022/01/11 08:30:10;;;;;;;21.02;12.32;;;103.00;1792.00;;;;;;5053031;28;20363;-60
2022/01/11 08:32:36;;;;;;;22.60;13.98;;;103.00;1766.40;;;;;;5053102;28;20115;-60
2022/01/11 08:35:01;;;;;;;27.17;13.70;;;103.00;1792.00;;;;;;5051844;28;20052;-60
2022/01/11 08:37:27;;;;;;;33.60;15.05;;;103.00;1766.40;;;;;;5053125;28;20348;-59
2022/01/11 08:39:53;;;;;;;31.05;13.32;;;103.00;1843.20;;;;;;5052875;28;20021;-60
2022/01/11 08:42:19;;;;;;;37.20;16.85;;;103.10;1817.60;;;;;;5052844;28;20112;-60
2022/01/11 08:44:49;;;;;;;28.80;15.32;;;103.00;1792.00;;;;;;5052856;28;20028;-60
2022/01/11 08:47:17;;;;;;;31.65;15.20;;;103.00;1766.40;;;;;;5052748;28;20047;-60
2022/01/11 08:49:43;;;;;;;26.33;13.68;;;103.10;1792.00;;;;;;5055669;28;20487;-60
2022/01/11 08:52:10;;;;;;;23.20;13.23;;;103.00;1766.40;;;;;;5056086;28;20025;-60
2022/01/11 08:54:36;;;;;;;26.02;12.90;;;103.10;1766.40;;;;;;5056435;28;20017;-60
2022/01/11 08:57:03;;;;;;;19.95;11.07;;;103.10;1766.40;;;;;;5056342;28;20031;-60
2022/01/11 08:59:29;;;;;;;19.20;11.32;;;103.00;1740.80;;;;;;5056023;28;20459;-60
2022/01/11 09:01:57;;;;;;;19.38;10.20;;;103.00;1766.40;;;;;;5056290;28;20475;-60
2022/01/11 09:04:24;;;;;;;19.55;10.73;;;103.10;1766.40;;;;;;5056286;28;20036;-60
2022/01/11 09:06:51;;;;;;;21.67;11.73;;;103.00;1740.80;;;;;;5056390;28;20032;-60
2022/01/11 09:09:18;;;;;;;25.38;12.35;;;103.10;1766.40;;;;;;5055918;28;20521;-60
2022/01/11 09:11:45;;;;;;;22.05;10.98;;;103.10;1766.40;;;;;;5056442;28;20044;-60
2022/01/11 09:14:12;;;;;;;28.45;14.00;;;103.00;1740.80;;;;;;5055949;28;20379;-60
2022/01/11 09:16:38;;;;;;;21.30;11.38;;;103.10;1740.80;;;;;;5056092;28;20029;-60
2022/01/11 09:19:04;;;;;;;22.33;11.15;;;103.10;1766.40;;;;;;5055907;28;20028;-60
2022/01/11 09:21:31;;;;;;;21.98;11.45;;;103.00;1740.80;;;;;;5055405;28;20029;-60
2022/01/11 09:23:57;;;;;;;23.33;12.00;;;103.00;1766.40;;;;;;5055821;28;20032;-60
2022/01/11 09:26:23;;;;;;;23.08;12.57;;;103.00;1792.00;;;;;;5055962;28;20025;-60
2022/01/11 09:28:49;;;;;;;27.02;13.82;;;103.00;1766.40;;;;;;5055678;28;20028;-60
2022/01/11 09:31:16;;;;;;;20.45;11.48;;;103.00;1792.00;;;;;;5055647;28;20036;-60
2022/01/11 09:33:41;;;;;;;21.77;12.38;;;103.00;1817.60;;;;;;5055694;28;20095;-60
2022/01/11 09:36:07;;;;;;;21.50;12.13;;;102.90;1792.00;;;;;;5055629;28;20047;-60
2022/01/11 09:38:33;;;;;;;20.80;12.23;;;102.90;1766.40;;;;;;5055595;28;20470;-60
2022/01/11 09:40:59;;;;;;;25.00;13.73;;;102.80;1766.40;;;;;;5055428;28;20079;-60
2022/01/11 09:43:27;;;;;;;41.92;21.23;;;102.80;1766.40;;;;;;5054982;28;20452;-60
2022/01/11 09:45:54;;;;;;;51.35;24.98;;;102.70;1792.00;;;;;;5055609;28;20100;-60
2022/01/11 09:48:26;;;;;;;38.65;21.00;;;102.70;1843.20;;;;;;5055412;28;20360;-60
2022/01/11 09:50:52;;;;;;;30.05;17.10;;;102.80;1817.60;;;;;;5055490;28;20036;-60
2022/01/11 09:53:18;;;;;;;27.67;16.85;;;102.70;1792.00;;;;;;5055211;28;20033;-60
2022/01/11 09:55:45;;;;;;;28.02;15.40;;;102.80;1843.20;;;;;;5055393;28;20025;-59
2022/01/11 09:58:13;;;;;;;30.80;16.30;;;102.90;1817.60;;;;;;5055752;28;20033;-61
2022/01/11 10:00:40;;;;;;;32.40;16.90;;;102.90;1817.60;;;;;;5044922;28;20060;-60
2022/01/11 10:03:07;;;;;;;23.48;14.38;;;102.90;1817.60;;;;;;5053533;28;20055;-59
2022/01/11 10:05:35;;;;;;;26.67;14.68;;;102.90;1817.60;;;;;;5053598;28;20463;-60
2022/01/11 10:08:19;;;;;;;20.67;13.40;;;102.90;1843.20;;;;;;5053344;28;20033;-59
2022/01/11 10:10:46;;;;;;;25.08;14.45;;;102.90;1817.60;;;;;;5051122;28;20025;-59
2022/01/11 10:13:37;;;;;;;23.73;12.57;;;102.80;1792.00;;;;;;5053646;28;20032;-59
2022/01/11 10:16:27;;;;;;;23.92;13.00;;;102.80;1843.20;;;;;;5054514;28;20021;-68
2022/01/11 10:18:55;;;;;;;57.65;28.02;;;102.90;1843.20;;;;;;5054809;28;20036;-67
2022/01/11 10:21:45;;;;;;;50.08;28.38;;;102.90;1817.60;;;;;;5053295;28;20021;-66
2022/01/11 10:24:27;;;;;;;43.58;24.02;;;102.90;1894.40;;;;;;5054130;28;20040;-63
2022/01/11 10:26:56;;;;;;;178.98;84.55;;;128.00;2176.00;;;;;;5054421;28;20470;-64
2022/01/11 10:29:36;;;;;;;274.05;122.00;;;128.60;2048.00;;;;;;5053379;28;20025;-64
2022/01/11 10:32:11;;;;;;;243.80;122.78;;;128.30;1894.40;;;;;;5054455;28;20079;-64
2022/01/11 10:34:38;;;;;;;155.25;73.63;;;128.10;1894.40;;;;;;5054315;28;20078;-65
2022/01/11 10:37:05;;;;;;;89.45;49.30;;;128.10;1894.40;;;;;;5054234;28;20497;-67
2022/01/11 10:39:31;;;;;;;68.45;36.05;;;128.00;1894.40;;;;;;5053870;28;20056;-64
2022/01/11 10:41:58;;;;;;;43.55;25.40;;;128.00;1868.80;;;;;;5054127;28;20020;-65
2022/01/11 10:44:58;;;;;;;45.45;27.50;;;103.30;1817.60;;;;;;5054254;28;20040;-64
2022/01/11 10:47:37;;;;;;;36.15;23.08;;;103.30;1817.60;;;;;;5032034;28;20033;-65
2022/01/11 10:50:28;;;;;;;56.10;30.23;;;103.30;1843.20;;;;;;5032265;28;20025;-64
2022/01/11 10:53:02;;;;;;;50.85;26.65;;;103.20;1894.40;;;;;;5031662;28;20021;-63
2022/01/11 10:55:32;;;;;;;59.83;27.90;;;103.20;1843.20;;;;;;5031913;28;20029;-65
2022/01/11 10:58:05;;;;;;;59.13;29.98;;;103.10;1868.80;;;;;;5032089;28;20033;-65
2022/01/11 11:00:33;;;;;;;58.65;29.70;;;103.10;1843.20;;;;;;5031446;28;20139;-71
2022/01/11 11:03:10;;;;;;;57.90;32.55;;;103.00;1894.40;;;;;;5031440;28;20226;-65
2022/01/11 11:05:51;;;;;;;58.60;34.17;;;103.10;1868.80;;;;;;5031599;28;20399;-68
2022/01/11 11:08:26;;;;;;;105.00;60.90;;;103.00;1868.80;;;;;;5031308;28;20025;-65
2022/01/11 11:11:15;;;;;;;115.22;65.82;;;103.00;1894.40;;;;;;5031528;28;20029;-65
2022/01/11 11:13:43;;;;;;;80.03;46.03;;;102.90;1868.80;;;;;;5031724;28;20022;-65
2022/01/11 11:16:16;;;;;;;115.30;73.68;;;102.90;1894.40;;;;;;5031408;28;20021;-65
2022/01/11 11:18:44;;;;;;;106.38;73.93;;;102.90;1868.80;;;;;;5031543;28;20069;-65
2022/01/11 11:21:26;;;;;;;75.88;49.35;;;102.90;1894.40;;;;;;5031378;28;20033;-65
2022/01/11 11:23:56;;;;;;;95.45;60.40;;;102.80;1843.20;;;;;;5044393;28;20041;-65
2022/01/11 11:26:24;;;;;;;67.90;43.60;;;102.80;1894.40;;;;;;5053868;28;20032;-65
2022/01/11 11:28:50;;;;;;;69.38;41.88;;;102.80;1894.40;;;;;;5052459;28;20037;-65
2022/01/11 11:31:16;;;;;;;65.03;41.50;;;102.70;1868.80;;;;;;5053372;28;20048;-65
2022/01/11 11:33:42;;;;;;;64.57;38.83;;;102.80;1894.40;;;;;;5053676;28;20378;-65
2022/01/11 11:36:11;;;;;;;59.35;33.72;;;102.70;1894.40;;;;;;5053196;28;20025;-66
2022/01/11 11:38:43;;;;;;;63.58;38.75;;;102.70;1894.40;;;;;;5053213;28;20060;-66
2022/01/11 11:41:10;;;;;;;48.28;29.85;;;102.70;1920.00;;;;;;5053098;28;20096;-65
2022/01/11 11:43:36;;;;;;;52.47;30.85;;;102.70;1894.40;;;;;;5052420;28;20033;-65
2022/01/11 11:46:02;;;;;;;54.10;30.05;;;102.70;1894.40;;;;;;5053049;28;20017;-65
2022/01/11 11:48:29;;;;;;;49.85;26.80;;;102.80;1894.40;;;;;;5053137;28;20021;-65
2022/01/11 11:51:03;;;;;;;56.63;30.77;;;102.70;1843.20;;;;;;5052855;28;20017;-66
2022/01/11 11:53:31;;;;;;;52.95;29.02;;;102.70;1868.80;;;;;;5049818;28;20036;-66
2022/01/11 11:56:33;;;;;;;54.38;29.13;;;102.70;1868.80;;;;;;5052829;28;20063;-66
2022/01/11 11:59:06;;;;;;;52.53;28.52;;;102.70;1868.80;;;;;;5030214;28;20095;-65
2022/01/11 12:01:45;;;;;;;49.95;27.05;;;102.70;1843.20;;;;;;5030785;28;20064;-65
2022/01/11 12:04:15;;;;;;;51.95;27.52;;;102.70;1843.20;;;;;;5029342;28;20033;-65